Time;durP1;ratioP1;P1;durP2;ratioP2;P2;SDS_P1;SDS_P2;PMS_P1;PMS_P2;Temp;Humidity;BMP_temperature;BMP_pressure;BME280_temperature;BME280_humidity;BME280_pressure;Samples;Min_cycle;Max_cycle;Signal;HPM_P1;HPM_P2
2021/11/01 00:01:03;;;;;;;20.90;3.40;;;11.70;86.60;;;;;;4922973;28;98222;-91
2021/11/01 00:03:30;;;;;;;15.43;3.15;;;11.70;86.50;;;;;;4940325;28;92338;-91
2021/11/01 00:05:58;;;;;;;15.75;3.00;;;11.60;86.30;;;;;;4943274;28;92447;-92
2021/11/01 00:08:25;;;;;;;18.10;3.65;;;11.60;86.50;;;;;;4942518;28;95844;-91
2021/11/01 00:10:52;;;;;;;21.27;3.13;;;11.60;86.70;;;;;;4926476;28;103401;-91
2021/11/01 00:13:19;;;;;;;19.30;4.03;;;11.60;86.60;;;;;;4927260;28;92363;-91
2021/11/01 00:15:46;;;;;;;19.38;4.47;;;11.50;86.70;;;;;;4943203;28;91861;-91
2021/11/01 00:18:13;;;;;;;20.25;3.95;;;11.50;86.60;;;;;;4910538;28;94775;-92
2021/11/01 00:20:40;;;;;;;15.38;3.53;;;11.50;86.60;;;;;;4926428;28;95943;-91
2021/11/01 00:23:07;;;;;;;13.13;3.63;;;11.50;87.20;;;;;;4959215;28;94742;-91
2021/11/01 00:25:34;;;;;;;15.18;3.22;;;11.50;86.70;;;;;;4910572;28;92449;-91
2021/11/01 00:28:03;;;;;;;13.13;3.08;;;11.50;86.60;;;;;;4926313;28;95332;-91
2021/11/01 00:30:30;;;;;;;14.82;3.42;;;11.50;87.00;;;;;;4926317;28;95274;-92
2021/11/01 00:32:57;;;;;;;20.88;2.88;;;11.50;86.70;;;;;;4926465;28;102122;-92
2021/11/01 00:35:24;;;;;;;13.10;2.78;;;11.50;86.70;;;;;;4926581;28;92567;-92
2021/11/01 00:37:51;;;;;;;12.30;3.03;;;11.50;86.50;;;;;;4926311;28;94712;-92
2021/11/01 00:40:18;;;;;;;17.83;3.67;;;11.40;86.60;;;;;;4926562;28;95336;-91
2021/11/01 00:42:45;;;;;;;17.00;3.30;;;11.40;86.60;;;;;;4926740;28;92272;-91
2021/11/01 00:45:13;;;;;;;19.35;3.67;;;11.40;86.70;;;;;;4910624;28;92601;-91
2021/11/01 00:47:40;;;;;;;17.08;3.55;;;11.40;86.60;;;;;;4957041;28;95844;-92
2021/11/01 00:50:13;;;;;;;17.17;3.60;;;11.30;86.50;;;;;;4928129;28;95669;-92
2021/11/01 00:52:40;;;;;;;17.17;3.47;;;11.30;86.80;;;;;;4925738;28;101798;-90
2021/11/01 00:55:16;;;;;;;14.05;4.05;;;11.30;86.80;;;;;;4926345;28;96027;-90
2021/11/01 00:57:43;;;;;;;19.83;3.90;;;11.30;86.90;;;;;;4942477;28;93190;-91
2021/11/01 01:00:11;;;;;;;17.08;3.40;;;11.30;87.20;;;;;;4926335;28;95218;-91
2021/11/01 01:02:38;;;;;;;20.95;4.05;;;11.30;87.00;;;;;;4924825;28;92461;-91
2021/11/01 01:05:06;;;;;;;13.30;3.40;;;11.30;86.80;;;;;;4926421;28;91735;-90
2021/11/01 01:07:33;;;;;;;19.42;3.70;;;11.30;87.30;;;;;;4941995;28;95563;-90
2021/11/01 01:10:00;;;;;;;20.17;3.30;;;11.30;87.00;;;;;;4941937;28;95369;-91
2021/11/01 01:12:27;;;;;;;19.40;4.03;;;11.30;86.70;;;;;;4924974;28;94655;-91
2021/11/01 01:14:58;;;;;;;18.45;3.45;;;11.30;87.00;;;;;;4942503;28;92417;-90
2021/11/01 01:17:26;;;;;;;11.75;3.72;;;11.20;86.70;;;;;;4941480;28;103389;-90
2021/11/01 01:20:06;;;;;;;14.57;3.85;;;11.20;86.80;;;;;;4941745;28;95744;-90
2021/11/01 01:22:34;;;;;;;13.60;3.08;;;11.20;86.80;;;;;;4941962;28;92308;-90
2021/11/01 01:25:09;;;;;;;11.07;3.42;;;11.20;87.00;;;;;;4910213;28;92462;-90
2021/11/01 01:27:49;;;;;;;19.58;3.90;;;11.20;87.10;;;;;;4927776;28;93402;-91
2021/11/01 01:30:16;;;;;;;16.73;3.53;;;11.20;87.90;;;;;;4941745;28;109473;-91
2021/11/01 01:32:44;;;;;;;20.65;3.15;;;11.20;87.00;;;;;;4926141;28;92365;-91
2021/11/01 01:35:13;;;;;;;14.07;2.72;;;11.20;86.90;;;;;;4925585;28;92486;-91
2021/11/01 01:37:42;;;;;;;18.15;3.40;;;11.20;86.70;;;;;;4924086;28;98427;-92
2021/11/01 01:40:11;;;;;;;21.23;3.80;;;11.10;86.70;;;;;;4941281;28;97730;-92
2021/11/01 01:42:39;;;;;;;21.35;4.13;;;11.10;86.90;;;;;;4909674;28;92691;-92
2021/11/01 01:45:09;;;;;;;16.20;3.92;;;11.10;86.90;;;;;;4941794;28;92403;-93
2021/11/01 01:47:36;;;;;;;18.33;3.90;;;11.10;87.00;;;;;;4941141;28;96298;-92
2021/11/01 01:50:04;;;;;;;14.20;3.45;;;11.10;87.30;;;;;;4941385;28;93174;-92
2021/11/01 01:52:31;;;;;;;22.67;5.00;;;11.10;87.10;;;;;;4941593;28;92454;-92
2021/11/01 01:54:58;;;;;;;15.63;3.63;;;11.00;86.70;;;;;;4958031;28;91888;-93
2021/11/01 01:57:25;;;;;;;16.38;3.28;;;11.00;86.70;;;;;;4909251;28;95766;-92
2021/11/01 01:59:53;;;;;;;18.70;3.75;;;11.00;86.70;;;;;;4941331;28;93374;-90
2021/11/01 02:02:21;;;;;;;15.98;3.40;;;11.00;86.90;;;;;;4923820;28;94887;-90
2021/11/01 02:04:49;;;;;;;17.95;3.80;;;10.90;86.60;;;;;;4925401;28;92274;-92
2021/11/01 02:07:29;;;;;;;20.73;3.55;;;10.90;86.60;;;;;;4924895;28;96098;-92
2021/11/01 02:10:10;;;;;;;16.90;3.25;;;10.90;86.80;;;;;;4940917;28;95600;-92
2021/11/01 02:12:58;;;;;;;16.30;3.05;;;10.90;86.60;;;;;;4941252;28;92291;-92
2021/11/01 02:15:36;;;;;;;19.30;2.60;;;10.90;86.70;;;;;;4941083;28;92538;-92
2021/11/01 02:18:05;;;;;;;14.20;2.90;;;10.90;86.60;;;;;;4940908;28;95510;-92
2021/11/01 02:20:35;;;;;;;14.68;3.08;;;10.80;86.50;;;;;;4940436;28;113835;-92
2021/11/01 02:23:22;;;;;;;18.65;2.90;;;10.90;86.70;;;;;;4957245;28;92445;-93
2021/11/01 02:25:52;;;;;;;13.85;3.10;;;10.80;86.50;;;;;;4941027;28;92432;-91
2021/11/01 02:28:25;;;;;;;14.52;3.38;;;10.80;86.50;;;;;;4939724;28;98235;-90
2021/11/01 02:30:53;;;;;;;15.35;3.08;;;10.80;87.30;;;;;;4940647;28;98479;-91
2021/11/01 02:33:23;;;;;;;14.25;2.50;;;10.70;86.70;;;;;;4924796;28;92508;-91
2021/11/01 02:35:52;;;;;;;13.52;2.83;;;10.80;86.30;;;;;;4940874;28;92394;-91
2021/11/01 02:38:22;;;;;;;15.90;2.80;;;10.70;86.70;;;;;;4956932;28;93425;-90
2021/11/01 02:40:51;;;;;;;15.20;3.50;;;10.70;86.50;;;;;;4940681;28;95185;-91
2021/11/01 02:43:18;;;;;;;13.75;3.00;;;10.70;86.60;;;;;;4941090;28;92302;-91
2021/11/01 02:45:45;;;;;;;15.43;3.17;;;10.70;86.70;;;;;;4941327;28;92015;-91
2021/11/01 02:48:13;;;;;;;12.63;3.72;;;10.70;86.60;;;;;;4924390;28;95619;-91
2021/11/01 02:50:43;;;;;;;13.32;3.20;;;10.60;86.40;;;;;;4940486;28;95190;-90
2021/11/01 02:53:10;;;;;;;16.27;3.30;;;10.60;86.60;;;;;;4923526;28;94777;-90
2021/11/01 02:55:38;;;;;;;17.00;2.70;;;10.60;86.40;;;;;;4924407;28;92456;-90
2021/11/01 03:02:08;;;;;;;9.55;2.60;;;10.70;86.60;;;;;;4939471;28;94780;-91
2021/11/01 03:04:36;;;;;;;19.45;3.85;;;10.50;86.40;;;;;;4940389;28;93315;-90
2021/11/01 03:07:03;;;;;;;16.88;3.17;;;10.50;86.30;;;;;;4924306;28;92505;-90
2021/11/01 03:09:36;;;;;;;18.50;3.65;;;10.50;86.40;;;;;;4923878;28;98383;-90
2021/11/01 03:12:07;;;;;;;15.50;3.65;;;10.50;86.60;;;;;;4924694;28;95696;-90
2021/11/01 03:14:41;;;;;;;16.60;2.95;;;10.50;86.80;;;;;;4940469;28;92205;-90
2021/11/01 03:17:13;;;;;;;10.73;2.67;;;10.50;86.50;;;;;;4923438;28;92636;-90
2021/11/01 03:19:44;;;;;;;10.38;2.67;;;10.50;86.70;;;;;;4938840;28;98359;-91
2021/11/01 03:22:11;;;;;;;17.02;2.67;;;10.50;86.70;;;;;;4939764;28;98028;-91
2021/11/01 03:24:41;;;;;;;11.57;2.97;;;10.40;86.70;;;;;;4923415;28;97097;-91
2021/11/01 03:27:10;;;;;;;11.73;2.80;;;10.40;86.60;;;;;;4923800;28;92604;-90
2021/11/01 03:29:40;;;;;;;13.23;2.88;;;10.40;86.70;;;;;;4923902;28;93438;-91
2021/11/01 03:32:09;;;;;;;12.68;3.10;;;10.30;87.30;;;;;;4924246;28;95742;-91
2021/11/01 03:34:37;;;;;;;15.75;3.55;;;10.40;86.90;;;;;;4923564;28;92398;-90
2021/11/01 03:37:10;;;;;;;7.90;2.53;;;10.30;87.00;;;;;;4924938;28;91775;-90
2021/11/01 03:39:42;;;;;;;10.05;2.88;;;10.30;86.90;;;;;;4924974;28;93221;-90
2021/11/01 03:42:11;;;;;;;10.27;2.58;;;10.30;87.00;;;;;;4940645;28;93094;-90
2021/11/01 03:44:45;;;;;;;9.05;2.60;;;10.30;87.40;;;;;;4923682;28;94956;-90
2021/11/01 03:47:13;;;;;;;15.80;2.60;;;10.30;86.70;;;;;;4940601;28;92488;-90
2021/11/01 03:49:51;;;;;;;14.07;2.90;;;10.30;86.70;;;;;;4956346;28;95904;-91
2021/11/01 03:52:22;;;;;;;10.73;2.50;;;10.30;86.60;;;;;;4940350;28;95691;-90
2021/11/01 03:54:51;;;;;;;13.73;2.67;;;10.30;86.70;;;;;;4924580;28;92438;-91
2021/11/01 03:57:19;;;;;;;14.27;2.83;;;10.30;86.60;;;;;;4940039;28;92329;-90
2021/11/01 03:59:47;;;;;;;9.65;2.50;;;10.30;86.50;;;;;;4941062;28;92419;-91
2021/11/01 04:22:52;;;;;;;10.02;2.17;;;10.20;86.40;;;;;;4919947;28;92485;-91
2021/11/01 04:25:21;;;;;;;14.80;2.50;;;10.20;85.50;;;;;;4920168;28;93249;-91
2021/11/01 04:33:09;;;;;;;11.68;2.15;;;10.20;85.50;;;;;;4933904;28;92442;-91
2021/11/01 04:35:38;;;;;;;12.43;2.70;;;10.20;85.60;;;;;;4920314;28;91676;-91
2021/11/01 04:54:10;;;;;;;12.05;2.17;;;10.20;85.80;;;;;;4912435;28;92374;-91
2021/11/01 04:56:37;;;;;;;11.90;2.38;;;10.20;85.40;;;;;;4906965;28;92579;-91
2021/11/01 04:59:04;;;;;;;14.02;2.60;;;10.20;86.40;;;;;;4922562;28;95994;-91
2021/11/01 05:01:38;;;;;;;9.88;2.30;;;10.20;85.90;;;;;;4907288;28;96048;-91
2021/11/01 05:04:07;;;;;;;9.57;2.35;;;10.20;85.50;;;;;;4908032;28;92411;-91
2021/11/01 05:06:41;;;;;;;9.82;2.60;;;10.20;85.10;;;;;;4907094;28;92405;-91
2021/11/01 05:09:15;;;;;;;5.43;1.73;;;10.20;85.00;;;;;;4921813;28;95986;-91
2021/11/01 05:11:55;;;;;;;10.70;2.03;;;10.20;85.50;;;;;;4924072;28;95277;-91
2021/11/01 05:14:33;;;;;;;10.75;2.15;;;10.10;85.30;;;;;;4940553;28;92412;-91
2021/11/01 05:17:16;;;;;;;11.77;2.30;;;10.10;85.90;;;;;;4921754;28;92519;-90
2021/11/01 05:19:55;;;;;;;6.95;1.65;;;10.10;85.50;;;;;;4928674;28;92387;-91
2021/11/01 05:22:32;;;;;;;8.52;2.28;;;10.10;85.80;;;;;;4911321;28;95967;-91
2021/11/01 05:25:06;;;;;;;11.30;2.33;;;10.10;85.50;;;;;;4912588;28;92559;-91
2021/11/01 05:27:56;;;;;;;6.40;1.83;;;10.10;85.50;;;;;;4927788;28;91530;-91
2021/11/01 05:30:36;;;;;;;9.15;2.10;;;10.00;86.10;;;;;;4945573;28;93413;-91
2021/11/01 05:35:41;;;;;;;10.00;2.03;;;10.10;85.90;;;;;;4940615;28;94759;-91
2021/11/01 05:38:09;;;;;;;11.05;2.83;;;10.10;85.90;;;;;;4942063;28;92841;-90
2021/11/01 05:40:37;;;;;;;11.10;2.63;;;10.00;85.80;;;;;;4941578;28;96265;-91
2021/11/01 05:43:04;;;;;;;10.35;2.17;;;10.10;86.30;;;;;;4941390;28;94801;-91
2021/11/01 05:45:32;;;;;;;8.57;2.17;;;10.10;85.30;;;;;;4925469;28;92401;-91
2021/11/01 05:48:02;;;;;;;8.45;2.25;;;10.00;85.50;;;;;;4941302;28;109116;-90
2021/11/01 05:50:32;;;;;;;12.10;2.55;;;10.10;86.00;;;;;;4941823;28;93264;-91
2021/11/01 05:53:02;;;;;;;10.57;2.53;;;10.10;86.10;;;;;;4959968;28;93408;-90
2021/11/01 06:08:26;;;;;;;13.27;3.08;;;10.00;86.20;;;;;;4927149;28;92434;-91
2021/11/01 06:13:25;;;;;;;8.02;2.28;;;10.00;86.00;;;;;;4941630;28;96203;-91
2021/11/01 06:13:40;;;;;;;10.30;2.40;;;10.00;86.00;;;;;;4928634;28;94307;-91
2021/11/01 06:16:07;;;;;;;7.88;2.28;;;10.00;86.00;;;;;;4909786;28;92574;-91
2021/11/01 06:18:38;;;;;;;8.70;2.85;;;10.00;86.20;;;;;;4925712;28;91929;-91
2021/11/01 06:21:07;;;;;;;10.23;2.33;;;10.00;86.20;;;;;;4941732;28;95036;-91
2021/11/01 06:23:35;;;;;;;9.98;2.95;;;10.00;86.20;;;;;;4941754;28;93107;-91
2021/11/01 06:26:03;;;;;;;7.10;2.08;;;10.00;85.90;;;;;;4941035;28;94825;-91
2021/11/01 06:28:31;;;;;;;9.70;2.70;;;10.00;86.80;;;;;;4943508;28;92509;-90
2021/11/01 06:31:13;;;;;;;14.50;2.67;;;10.00;86.60;;;;;;4912602;28;95040;-91
2021/11/01 06:42:15;;;;;;;10.55;3.03;;;10.00;86.80;;;;;;4926713;28;95652;-92
2021/11/01 06:50:23;;;;;;;9.98;3.50;;;10.00;86.30;;;;;;4904935;28;92443;-91
2021/11/01 06:53:24;;;;;;;12.93;3.95;;;10.00;86.10;;;;;;4871024;28;98638;-91
2021/11/01 06:58:49;;;;;;;8.95;3.08;;;10.10;86.80;;;;;;4879722;28;92831;-91
2021/11/01 07:15:16;;;;;;;8.85;3.97;;;10.50;85.00;;;;;;4923097;28;94844;-92
2021/11/01 08:17:18;;;;;;;9.05;2.70;;;11.10;82.80;;;;;;4921216;28;99331;-91
2021/11/01 08:39:24;;;;;;;6.88;2.30;;;12.60;76.70;;;;;;4878373;28;92674;-91
2021/11/01 09:28:11;;;;;;;8.77;2.92;;;13.00;72.40;;;;;;4938451;28;93153;-89
2021/11/01 09:36:06;;;;;;;8.32;3.03;;;13.30;72.00;;;;;;4936328;28;96623;-92
2021/11/01 09:42:03;;;;;;;8.60;2.35;;;13.40;71.40;;;;;;4924214;28;92449;-94
2021/11/01 09:44:32;;;;;;;9.35;2.63;;;13.40;71.60;;;;;;4921958;28;92465;-91
2021/11/01 09:47:03;;;;;;;8.93;2.47;;;13.40;71.50;;;;;;4905207;28;96049;-91
2021/11/01 09:49:31;;;;;;;8.85;2.70;;;13.40;71.40;;;;;;4920518;28;96009;-90
2021/11/01 09:52:01;;;;;;;13.10;2.83;;;13.50;71.40;;;;;;4920593;28;92906;-90
2021/11/01 09:54:30;;;;;;;10.27;2.55;;;13.70;71.30;;;;;;4921589;28;91853;-91
2021/11/01 09:57:05;;;;;;;6.22;2.20;;;13.70;70.20;;;;;;4920976;28;95692;-91
2021/11/01 09:59:40;;;;;;;6.53;2.22;;;13.80;69.80;;;;;;4920577;28;95395;-92
2021/11/01 10:02:10;;;;;;;7.53;2.40;;;13.80;70.10;;;;;;4919817;28;95144;-91
2021/11/01 10:04:41;;;;;;;8.57;2.28;;;13.80;69.90;;;;;;4920885;28;92421;-91
2021/11/01 10:07:25;;;;;;;8.88;2.47;;;13.80;70.00;;;;;;4921943;28;95802;-92
2021/11/01 10:09:55;;;;;;;8.70;2.65;;;13.90;70.00;;;;;;4921735;28;95668;-91
2021/11/01 10:12:32;;;;;;;5.45;2.08;;;13.90;69.50;;;;;;4921801;28;92428;-91
2021/11/01 10:18:11;;;;;;;4.05;2.20;;;13.90;69.60;;;;;;4940627;28;95658;-91
2021/11/01 10:20:50;;;;;;;7.20;2.33;;;13.90;69.20;;;;;;4941353;28;95874;-93
2021/11/01 10:23:32;;;;;;;5.88;2.72;;;13.90;69.40;;;;;;4941096;28;92293;-92
2021/11/01 10:26:16;;;;;;;6.88;2.70;;;13.90;69.00;;;;;;4958628;28;92381;-91
2021/11/01 10:28:53;;;;;;;5.15;2.45;;;13.80;69.50;;;;;;4936421;28;98558;-92
2021/11/01 10:31:24;;;;;;;7.35;2.28;;;13.80;69.10;;;;;;4934476;28;98209;-91
2021/11/01 10:34:04;;;;;;;6.07;2.35;;;13.80;69.50;;;;;;4937082;28;92402;-90
2021/11/01 10:36:34;;;;;;;9.65;2.72;;;13.80;69.30;;;;;;4936895;28;92352;-91
2021/11/01 10:39:17;;;;;;;7.90;2.30;;;13.80;69.10;;;;;;4920511;28;95877;-90
2021/11/01 10:41:56;;;;;;;8.88;2.65;;;14.00;69.30;;;;;;4936341;28;95619;-89
2021/11/01 10:44:52;;;;;;;8.20;2.65;;;14.00;69.20;;;;;;4940555;28;92445;-91
2021/11/01 11:12:46;;;;;;;8.30;2.10;;;14.40;66.80;;;;;;4928345;28;93313;-91
2021/11/01 11:15:14;;;;;;;5.53;1.83;;;14.50;66.50;;;;;;4898925;28;95281;-91
2021/11/01 11:31:53;;;;;;;6.80;2.15;;;14.60;66.10;;;;;;4957702;28;92333;-91
2021/11/01 11:37:36;;;;;;;6.50;1.75;;;14.70;66.00;;;;;;4941424;28;93615;-91
2021/11/01 11:48:38;;;;;;;5.38;1.83;;;14.60;65.90;;;;;;4975394;28;95737;-91
2021/11/01 11:50:45;;;;;;;6.22;1.98;;;14.50;65.50;;;;;;4952927;28;94942;-91
2021/11/01 11:53:14;;;;;;;6.00;1.70;;;14.50;65.90;;;;;;4926580;28;107520;-91
2021/11/01 11:55:43;;;;;;;6.30;1.75;;;14.50;64.70;;;;;;4943047;28;95893;-90
2021/11/01 11:58:13;;;;;;;3.05;1.45;;;14.50;64.50;;;;;;4975231;28;96708;-90
2021/11/01 12:00:42;;;;;;;2.75;1.52;;;14.60;65.20;;;;;;4942416;28;92385;-91
2021/11/01 12:03:15;;;;;;;4.55;1.63;;;14.60;64.70;;;;;;4942475;28;92547;-91
2021/11/01 12:05:55;;;;;;;8.38;2.10;;;14.60;64.90;;;;;;4960555;28;92421;-90
2021/11/01 12:19:03;;;;;;;3.53;1.55;;;14.90;63.80;;;;;;4960250;28;95269;-91
2021/11/01 12:21:31;;;;;;;5.43;1.42;;;15.00;63.80;;;;;;4975294;28;92402;-91
2021/11/01 12:23:59;;;;;;;6.43;1.98;;;15.00;63.60;;;;;;4974785;28;102121;-91
2021/11/01 12:26:27;;;;;;;8.25;1.95;;;14.90;63.50;;;;;;4926402;28;95775;-91
2021/11/01 12:28:59;;;;;;;4.63;2.28;;;15.00;63.30;;;;;;4958733;28;95549;-91
2021/11/01 12:31:28;;;;;;;5.47;1.70;;;15.10;63.30;;;;;;4959247;28;92361;-91
2021/11/01 12:34:15;;;;;;;7.93;1.88;;;15.10;63.20;;;;;;4959302;28;91699;-91
2021/11/01 12:36:54;;;;;;;5.85;1.67;;;15.00;62.90;;;;;;4942248;28;96126;-91
2021/11/01 12:39:51;;;;;;;4.63;1.70;;;14.90;63.20;;;;;;4942388;28;93917;-91
2021/11/01 12:58:57;;;;;;;3.03;1.75;;;14.90;62.70;;;;;;4940850;28;95870;-91
2021/11/01 13:01:25;;;;;;;4.07;1.90;;;14.80;62.80;;;;;;4942041;28;96102;-91
2021/11/01 13:03:57;;;;;;;6.80;1.85;;;14.70;63.20;;;;;;4925190;28;106608;-91
2021/11/01 13:06:36;;;;;;;4.03;1.33;;;14.70;62.70;;;;;;4941571;28;92474;-92
2021/11/01 13:09:14;;;;;;;3.75;1.38;;;14.80;63.10;;;;;;4925028;28;98544;-91
2021/11/01 13:19:52;;;;;;;3.10;1.30;;;14.90;63.00;;;;;;4902829;28;96236;-93
2021/11/01 13:22:28;;;;;;;4.28;1.35;;;14.90;62.00;;;;;;4902833;28;96085;-93
2021/11/01 13:25:11;;;;;;;4.45;1.25;;;14.90;62.20;;;;;;4919672;28;92581;-93
2021/11/01 13:38:58;;;;;;;6.07;1.50;;;14.90;62.50;;;;;;4921896;28;92567;-92
2021/11/01 13:41:29;;;;;;;5.75;1.75;;;14.90;63.00;;;;;;4905799;28;95988;-91
2021/11/01 13:44:10;;;;;;;4.57;1.33;;;14.90;62.00;;;;;;4921534;28;95568;-91
2021/11/01 13:46:55;;;;;;;2.65;1.50;;;14.90;62.20;;;;;;4923013;28;92418;-93
2021/11/01 13:49:22;;;;;;;3.55;1.40;;;14.90;62.70;;;;;;4906321;28;92524;-92
2021/11/01 13:51:51;;;;;;;5.60;1.55;;;14.90;62.50;;;;;;4922295;28;93319;-92
2021/11/01 13:57:00;;;;;;;3.22;1.67;;;14.90;63.10;;;;;;4921882;28;92497;-91
2021/11/01 14:29:45;;;;;;;4.60;1.70;;;14.70;63.00;;;;;;4958213;28;94739;-93
2021/11/01 15:13:54;;;;;;;4.82;1.50;;;14.00;64.80;;;;;;4953369;28;92423;-85
2021/11/01 16:18:13;;;;;;;6.85;1.60;;;12.20;70.30;;;;;;4932436;28;95250;-85
2021/11/01 16:20:42;;;;;;;5.10;1.75;;;12.20;70.60;;;;;;4933331;28;92780;-84
2021/11/01 16:23:56;;;;;;;4.85;2.00;;;12.10;70.80;;;;;;4947651;28;108922;-85
2021/11/01 16:25:59;;;;;;;5.90;2.20;;;12.10;70.70;;;;;;4931371;28;96508;-85
2021/11/01 16:28:32;;;;;;;5.20;2.17;;;12.00;70.70;;;;;;4934082;28;94376;-85
2021/11/01 16:33:33;;;;;;;7.57;2.20;;;11.90;71.30;;;;;;4951211;28;93358;-84
2021/11/01 16:39:14;;;;;;;6.80;1.88;;;11.80;71.60;;;;;;4931344;28;93336;-85
2021/11/01 16:41:42;;;;;;;7.13;2.05;;;11.80;71.60;;;;;;4977383;28;92592;-85
2021/11/01 16:44:17;;;;;;;4.82;2.03;;;11.70;72.10;;;;;;4991047;28;113395;-86
2021/11/01 16:46:46;;;;;;;5.28;1.95;;;11.70;71.90;;;;;;4980580;28;95773;-85
2021/11/01 16:49:13;;;;;;;4.70;2.25;;;11.70;72.30;;;;;;4993569;28;92472;-85
2021/11/01 16:51:42;;;;;;;4.38;2.13;;;11.70;72.50;;;;;;4944968;28;92533;-85
2021/11/01 16:54:13;;;;;;;6.47;2.17;;;11.70;72.60;;;;;;4995084;28;93590;-85
2021/11/01 16:59:38;;;;;;;5.15;2.20;;;11.60;72.60;;;;;;4994244;28;92508;-85
2021/11/01 17:04:42;;;;;;;2.92;1.77;;;11.60;72.80;;;;;;4995159;28;93170;-85
2021/11/01 17:08:16;;;;;;;6.53;2.13;;;11.50;72.70;;;;;;4992948;28;92843;-85
2021/11/01 17:26:36;;;;;;;6.05;2.33;;;11.10;75.00;;;;;;4986577;28;93682;-84
2021/11/01 17:35:04;;;;;;;5.30;2.40;;;11.00;75.50;;;;;;4994725;28;92774;-84
2021/11/01 17:37:40;;;;;;;5.10;2.30;;;11.00;75.30;;;;;;4987895;28;95981;-84
2021/11/01 18:41:56;;;;;;;7.25;3.60;;;10.80;76.40;;;;;;4934390;28;93363;-86
2021/11/01 18:44:55;;;;;;;8.35;6.20;;;10.80;76.80;;;;;;4987225;28;93337;-85
2021/11/01 18:53:10;;;;;;;5.80;3.35;;;10.80;76.20;;;;;;4976091;28;91790;-85
2021/11/01 18:55:38;;;;;;;5.43;3.00;;;10.80;76.10;;;;;;4966152;28;93954;-84
2021/11/01 18:58:07;;;;;;;3.15;2.33;;;10.70;75.90;;;;;;4992457;28;94879;-85
2021/11/01 19:00:42;;;;;;;6.50;2.63;;;10.70;76.40;;;;;;4992869;28;94948;-85
2021/11/01 19:03:14;;;;;;;4.20;2.30;;;10.70;76.70;;;;;;4973829;28;92847;-84
2021/11/01 19:05:52;;;;;;;6.80;2.72;;;10.60;76.30;;;;;;4975150;28;95844;-85
2021/11/01 19:08:36;;;;;;;4.88;2.33;;;10.60;76.90;;;;;;4978049;28;92961;-85
2021/11/01 20:08:08;;;;;;;4.22;2.35;;;11.40;75.60;;;;;;4986204;28;92900;-85
2021/11/01 21:25:56;;;;;;;4.78;3.40;;;10.10;79.50;;;;;;4987246;28;92494;-85
2021/11/01 21:28:24;;;;;;;8.38;3.13;;;10.00;79.70;;;;;;4992642;28;104813;-85
2021/11/01 21:30:51;;;;;;;5.55;3.05;;;10.00;79.50;;;;;;4989597;28;96212;-85
2021/11/01 21:33:31;;;;;;;8.52;3.30;;;10.00;79.60;;;;;;4949255;28;95490;-85
2021/11/01 21:36:04;;;;;;;3.90;3.33;;;9.90;80.00;;;;;;4981379;28;93811;-85
2021/11/01 21:38:32;;;;;;;7.60;3.17;;;9.90;79.80;;;;;;4984820;28;92268;-85
2021/11/01 21:40:59;;;;;;;5.68;3.72;;;9.80;79.90;;;;;;4978144;28;93336;-85
2021/11/01 21:43:26;;;;;;;5.50;3.80;;;9.80;80.40;;;;;;4976434;28;93088;-85
2021/11/01 21:45:54;;;;;;;8.55;3.25;;;9.80;80.60;;;;;;4976603;28;94912;-85
2021/11/01 21:48:21;;;;;;;4.88;3.65;;;9.80;80.40;;;;;;4983904;28;106375;-85
2021/11/01 21:50:49;;;;;;;6.60;3.50;;;9.70;80.30;;;;;;4991546;28;93301;-86
2021/11/01 21:53:21;;;;;;;4.38;3.42;;;9.70;80.30;;;;;;4984001;28;94405;-85
2021/11/01 21:55:48;;;;;;;4.82;3.47;;;9.60;80.30;;;;;;4971492;28;95706;-85
2021/11/01 22:01:22;;;;;;;6.32;3.72;;;9.50;80.40;;;;;;4992503;28;93254;-85
2021/11/01 22:17:51;;;;;;;7.35;4.60;;;9.20;81.80;;;;;;4980992;28;93582;-85
2021/11/01 22:20:22;;;;;;;5.85;4.07;;;9.20;81.70;;;;;;4969147;28;94631;-85
2021/11/01 22:25:39;;;;;;;6.10;4.13;;;9.10;82.60;;;;;;4987867;28;92789;-85
2021/11/01 22:34:12;;;;;;;6.32;4.13;;;9.00;82.50;;;;;;4992327;28;93466;-85
2021/11/01 22:55:43;;;;;;;6.38;3.58;;;8.80;83.80;;;;;;4991698;28;93673;-85
2021/11/01 22:58:16;;;;;;;5.20;3.70;;;8.80;83.90;;;;;;4974438;28;93301;-85
2021/11/01 23:00:53;;;;;;;6.82;4.07;;;8.80;83.90;;;;;;4969485;28;93500;-87
2021/11/01 23:03:26;;;;;;;7.32;3.50;;;8.80;84.00;;;;;;4969934;28;92782;-87
2021/11/01 23:33:24;;;;;;;5.47;3.70;;;8.60;84.20;;;;;;4988285;28;95769;-85
2021/11/01 23:35:52;;;;;;;5.15;4.10;;;8.60;84.20;;;;;;4990223;28;92736;-85
2021/11/01 23:38:20;;;;;;;4.57;3.88;;;8.60;84.20;;;;;;4980079;28;93942;-85
2021/11/01 23:40:48;;;;;;;5.53;3.10;;;8.60;84.40;;;;;;4992471;28;93355;-85
2021/11/01 23:43:16;;;;;;;4.07;3.47;;;8.60;84.20;;;;;;4976864;28;92588;-85
2021/11/01 23:45:45;;;;;;;6.80;3.85;;;8.60;84.40;;;;;;4992899;28;92630;-85
2021/11/01 23:48:13;;;;;;;5.10;3.78;;;8.50;85.20;;;;;;4977477;28;95848;-85
2021/11/01 23:50:41;;;;;;;6.47;3.95;;;8.60;85.20;;;;;;4995725;28;92776;-85
2021/11/01 23:53:32;;;;;;;5.93;4.00;;;8.60;85.20;;;;;;4995794;28;92848;-85
2021/11/01 23:56:00;;;;;;;5.13;3.90;;;8.60;85.20;;;;;;4983642;28;92548;-85
2021/11/01 23:58:27;;;;;;;7.30;3.78;;;8.50;85.00;;;;;;4976155;28;98517;-85
